createdAt,value
2019-01-29T00:00:32.373Z,1.18
2019-01-29T00:01:32.365Z,1.12
2019-01-29T00:02:32.352Z,1.08
2019-01-29T00:03:32.330Z,1.10
2019-01-29T00:04:32.317Z,1.01
2019-01-29T00:05:32.301Z,0.98
2019-01-29T00:06:32.330Z,1.03
2019-01-29T00:07:32.292Z,0.98
2019-01-29T00:08:32.279Z,1.04
2019-01-29T00:09:32.259Z,1.00
2019-01-29T00:10:32.253Z,1.04
2019-01-29T00:11:32.245Z,1.01
2019-01-29T00:12:32.235Z,1.00
2019-01-29T00:13:32.239Z,0.98
2019-01-29T00:14:32.269Z,0.92
2019-01-29T00:15:32.233Z,0.90
2019-01-29T00:16:32.194Z,0.86
2019-01-29T00:17:32.272Z,0.88
2019-01-29T00:18:32.182Z,0.98
2019-01-29T00:19:32.221Z,0.90
2019-01-29T00:20:32.158Z,0.98
2019-01-29T00:21:32.151Z,0.98
2019-01-29T00:22:33.513Z,1.00
2019-01-29T00:23:32.132Z,1.00
2019-01-29T00:24:32.160Z,1.04
2019-01-29T00:25:32.113Z,1.03
2019-01-29T00:26:32.117Z,0.94
2019-01-29T00:27:32.095Z,0.89
2019-01-29T00:28:32.081Z,0.92
2019-01-29T00:29:32.111Z,0.90
2019-01-29T00:30:32.062Z,0.90
2019-01-29T00:31:32.093Z,0.88
2019-01-29T00:32:32.086Z,0.94
2019-01-29T00:33:32.035Z,0.92
2019-01-29T00:34:32.057Z,0.92
2019-01-29T00:35:32.016Z,0.96
2019-01-29T00:36:32.007Z,0.92
2019-01-29T00:37:31.994Z,0.89
2019-01-29T00:38:32.011Z,0.88
2019-01-29T00:39:31.977Z,0.94
2019-01-29T00:40:31.970Z,0.89
2019-01-29T00:41:31.966Z,0.90
2019-01-29T00:42:31.945Z,0.96
2019-01-29T00:43:31.939Z,0.92
2019-01-29T00:44:31.950Z,0.96
2019-01-29T00:45:31.952Z,0.88
2019-01-29T00:46:31.912Z,0.89
2019-01-29T00:47:31.900Z,0.96
2019-01-29T00:48:31.896Z,0.90
2019-01-29T00:49:31.908Z,0.85
2019-01-29T00:50:31.872Z,0.94
2019-01-29T00:51:31.862Z,0.89
2019-01-29T00:52:31.852Z,0.96
2019-01-29T00:53:31.897Z,0.85
2019-01-29T00:54:31.836Z,0.89
2019-01-29T00:55:31.825Z,0.89
2019-01-29T00:56:31.818Z,0.89
2019-01-29T00:57:31.804Z,0.96
2019-01-29T00:58:31.798Z,0.85
2019-01-29T00:59:31.786Z,0.86
2019-01-29T01:00:31.777Z,0.80
2019-01-29T01:01:31.769Z,0.79
2019-01-29T01:02:31.753Z,0.83
2019-01-29T01:03:31.744Z,0.82
2019-01-29T01:04:31.739Z,0.86
2019-01-29T01:05:31.729Z,0.82
2019-01-29T01:06:31.720Z,0.82
2019-01-29T01:07:31.734Z,0.83
2019-01-29T01:08:31.711Z,0.82
2019-01-29T01:09:31.689Z,0.85
2019-01-29T01:10:31.677Z,0.88
2019-01-29T01:11:31.714Z,0.72
2019-01-29T01:12:31.657Z,0.76
2019-01-29T01:13:31.651Z,0.78
2019-01-29T01:14:31.659Z,0.72
2019-01-29T01:15:31.649Z,0.75
2019-01-29T01:16:31.638Z,0.82
2019-01-29T01:17:31.610Z,0.72
2019-01-29T01:18:31.619Z,0.72
2019-01-29T01:19:31.590Z,0.71
2019-01-29T01:20:31.580Z,0.78
2019-01-29T01:21:31.569Z,0.78
2019-01-29T01:22:31.566Z,0.83
2019-01-29T01:23:31.550Z,0.75
2019-01-29T01:24:31.553Z,0.78
2019-01-29T01:25:31.546Z,0.76
2019-01-29T01:26:31.529Z,0.72
2019-01-29T01:27:31.570Z,0.76
2019-01-29T01:28:31.502Z,0.75
2019-01-29T01:29:31.497Z,0.75
2019-01-29T01:30:31.514Z,0.72
2019-01-29T01:31:31.543Z,0.72
2019-01-29T01:32:31.466Z,0.76
2019-01-29T01:33:31.483Z,0.71
2019-01-29T01:34:31.448Z,0.72
2019-01-29T01:35:31.433Z,0.71
2019-01-29T01:36:31.423Z,0.68
2019-01-29T01:37:31.435Z,0.61
2019-01-29T01:38:31.409Z,0.62
2019-01-29T01:39:31.418Z,0.67
2019-01-29T01:40:31.386Z,0.75
2019-01-29T01:41:31.377Z,0.67
2019-01-29T01:42:31.369Z,0.67
2019-01-29T01:43:31.356Z,0.58
2019-01-29T01:44:31.346Z,0.62
2019-01-29T01:45:31.356Z,0.53
2019-01-29T01:46:31.331Z,0.52
2019-01-29T01:47:31.320Z,0.62
2019-01-29T01:48:31.306Z,0.58
2019-01-29T01:49:31.300Z,0.57
2019-01-29T01:50:31.307Z,0.58
2019-01-29T01:51:31.276Z,0.62
2019-01-29T01:52:31.272Z,0.61
2019-01-29T01:53:31.260Z,0.53
2019-01-29T01:54:31.253Z,0.52
2019-01-29T01:55:31.241Z,0.53
2019-01-29T01:56:31.244Z,0.53
2019-01-29T01:57:31.220Z,0.43
2019-01-29T01:58:31.217Z,0.41
2019-01-29T01:59:31.233Z,0.43
2019-01-29T02:00:31.187Z,0.49
2019-01-29T02:01:31.179Z,0.43
2019-01-29T02:02:31.169Z,0.46
2019-01-29T02:03:31.159Z,0.48
2019-01-29T02:04:31.146Z,0.38
2019-01-29T02:05:31.137Z,0.42
2019-01-29T02:06:31.129Z,0.43
2019-01-29T02:07:31.121Z,0.45
2019-01-29T02:08:31.107Z,0.43
2019-01-29T02:09:31.098Z,0.43
2019-01-29T02:10:31.115Z,0.41
2019-01-29T02:11:31.079Z,0.45
2019-01-29T02:12:31.067Z,0.41
2019-01-29T02:13:31.070Z,0.60
2019-01-29T02:14:31.047Z,0.43
2019-01-29T02:15:31.057Z,0.53
2019-01-29T02:16:31.026Z,0.43
2019-01-29T02:17:31.017Z,0.48
2019-01-29T02:18:31.006Z,0.58
2019-01-29T02:19:30.998Z,0.41
2019-01-29T02:20:30.994Z,0.48
2019-01-29T02:21:30.978Z,0.43
2019-01-29T02:22:30.967Z,0.48
2019-01-29T02:23:30.957Z,0.45
2019-01-29T02:24:30.946Z,0.39
2019-01-29T02:25:30.957Z,0.43
2019-01-29T02:26:30.965Z,0.43
2019-01-29T02:27:30.918Z,0.43
2019-01-29T02:28:30.909Z,0.45
2019-01-29T02:29:30.894Z,0.45
2019-01-29T02:30:30.889Z,0.45
2019-01-29T02:31:30.895Z,0.45
2019-01-29T02:32:30.874Z,0.45
2019-01-29T02:33:30.855Z,0.48
2019-01-29T02:34:30.845Z,0.49
2019-01-29T02:35:30.834Z,0.41
2019-01-29T02:36:30.849Z,0.48
2019-01-29T02:37:30.830Z,0.43
2019-01-29T02:38:30.806Z,0.39
2019-01-29T02:39:30.796Z,0.36
2019-01-29T02:40:30.782Z,0.30
2019-01-29T02:41:30.777Z,0.36
2019-01-29T02:42:30.785Z,0.38
2019-01-29T02:43:30.757Z,0.38
2019-01-29T02:44:30.743Z,0.30
2019-01-29T02:45:30.757Z,0.36
2019-01-29T02:46:30.723Z,0.43
2019-01-29T02:47:30.714Z,0.43
2019-01-29T02:48:30.704Z,0.43
2019-01-29T02:49:30.692Z,0.46
2019-01-29T02:50:30.680Z,0.45
2019-01-29T02:51:30.672Z,0.45
2019-01-29T02:52:30.661Z,0.41
2019-01-29T02:53:30.653Z,0.41
2019-01-29T02:54:30.641Z,0.30
2019-01-29T02:55:30.658Z,0.36
2019-01-29T02:56:30.622Z,0.31
2019-01-29T02:57:30.610Z,0.31
2019-01-29T02:58:30.602Z,0.42
2019-01-29T02:59:30.592Z,0.34
2019-01-29T03:00:30.580Z,0.41
2019-01-29T03:01:30.573Z,0.39
2019-01-29T03:02:30.583Z,0.41
2019-01-29T03:03:30.551Z,0.30
2019-01-29T03:04:30.538Z,0.27
2019-01-29T03:05:30.528Z,0.36
2019-01-29T03:06:30.541Z,0.39
2019-01-29T03:07:30.510Z,0.46
2019-01-29T03:08:30.499Z,0.48
2019-01-29T03:09:30.508Z,0.41
2019-01-29T03:10:30.485Z,0.42
2019-01-29T03:11:30.465Z,0.43
2019-01-29T03:12:30.457Z,0.39
2019-01-29T03:13:30.528Z,0.46
2019-01-29T03:14:30.435Z,0.41
2019-01-29T03:15:30.430Z,0.36
2019-01-29T03:16:30.414Z,0.39
2019-01-29T03:17:30.404Z,0.38
2019-01-29T03:18:30.394Z,0.33
2019-01-29T03:19:30.386Z,0.21
2019-01-29T03:20:30.389Z,0.30
2019-01-29T03:21:31.646Z,0.30
2019-01-29T03:22:30.354Z,0.27
2019-01-29T03:23:30.380Z,0.24
2019-01-29T03:24:30.328Z,0.23
2019-01-29T03:25:30.319Z,0.27
2019-01-29T03:26:30.324Z,0.24
2019-01-29T03:27:30.308Z,0.24
2019-01-29T03:28:30.318Z,0.34
2019-01-29T03:29:30.280Z,0.24
2019-01-29T03:30:30.273Z,0.33
2019-01-29T03:31:30.263Z,0.33
2019-01-29T03:32:30.255Z,0.33
2019-01-29T03:33:30.239Z,0.24
2019-01-29T03:34:30.229Z,0.39
2019-01-29T03:35:30.221Z,0.36
2019-01-29T03:36:30.220Z,0.33
2019-01-29T03:37:30.197Z,0.24
2019-01-29T03:38:30.213Z,0.39
2019-01-29T03:39:30.175Z,0.38
2019-01-29T03:40:30.167Z,0.27
2019-01-29T03:41:30.159Z,0.24
2019-01-29T03:42:30.147Z,0.18
2019-01-29T03:43:30.146Z,0.20
2019-01-29T03:44:30.126Z,0.24
2019-01-29T03:45:30.111Z,0.20
2019-01-29T03:46:30.103Z,0.23
2019-01-29T03:47:30.095Z,0.20
2019-01-29T03:48:30.086Z,0.18
2019-01-29T03:49:30.070Z,0.21
2019-01-29T03:50:30.083Z,0.25
2019-01-29T03:51:30.052Z,0.20
2019-01-29T03:52:30.056Z,0.24
2019-01-29T03:53:37.838Z,0.23
2019-01-29T03:54:30.023Z,0.16
2019-01-29T03:55:30.010Z,0.25
2019-01-29T03:56:29.996Z,0.25
2019-01-29T03:57:30.014Z,0.27
2019-01-29T03:58:29.984Z,0.27
2019-01-29T03:59:29.998Z,0.33
2019-01-29T04:00:29.960Z,0.24
2019-01-29T04:01:29.949Z,0.27
2019-01-29T04:02:29.936Z,0.31
2019-01-29T04:03:29.931Z,0.36
2019-01-29T04:04:29.918Z,0.41
2019-01-29T04:05:29.927Z,0.41
2019-01-29T04:06:29.897Z,0.36
2019-01-29T04:07:29.900Z,0.41
2019-01-29T04:08:29.875Z,0.49
2019-01-29T04:09:29.864Z,0.49
2019-01-29T04:10:29.854Z,0.45
2019-01-29T04:11:29.857Z,0.45
2019-01-29T04:12:29.833Z,0.51
2019-01-29T04:13:29.824Z,0.48
2019-01-29T04:14:29.845Z,0.43
2019-01-29T04:15:29.806Z,0.43
2019-01-29T04:16:29.829Z,0.57
2019-01-29T04:17:29.810Z,0.60
2019-01-29T04:18:29.828Z,0.53
2019-01-29T04:19:29.766Z,0.52
2019-01-29T04:20:29.755Z,0.57
2019-01-29T04:21:29.739Z,0.57
2019-01-29T04:22:29.731Z,0.62
2019-01-29T04:23:29.721Z,0.60
2019-01-29T04:24:29.733Z,0.53
2019-01-29T04:25:29.730Z,0.62
2019-01-29T04:26:29.707Z,0.62
2019-01-29T04:27:29.756Z,0.52
2019-01-29T04:28:29.679Z,0.52
2019-01-29T04:29:29.666Z,0.45
2019-01-29T04:30:29.654Z,0.43
2019-01-29T04:31:29.650Z,0.41
2019-01-29T04:32:29.673Z,0.34
2019-01-29T04:33:29.623Z,0.31
2019-01-29T04:34:29.611Z,0.41
2019-01-29T04:35:29.601Z,0.36
2019-01-29T04:36:29.597Z,0.15
2019-01-29T04:37:29.584Z,0.31
2019-01-29T04:38:29.569Z,0.18
2019-01-29T04:39:29.556Z,0.25
2019-01-29T04:40:29.545Z,0.23
2019-01-29T04:41:29.540Z,0.21
2019-01-29T04:42:29.528Z,0.20
2019-01-29T04:43:29.514Z,0.27
2019-01-29T04:44:29.514Z,0.34
2019-01-29T04:45:29.509Z,0.31
2019-01-29T04:46:29.483Z,0.28
2019-01-29T04:47:29.475Z,0.33
2019-01-29T04:48:29.465Z,0.34
2019-01-29T04:49:29.457Z,0.30
2019-01-29T04:50:29.449Z,0.39
2019-01-29T04:51:29.441Z,0.28
2019-01-29T04:52:29.422Z,0.41
2019-01-29T04:53:29.419Z,0.31
2019-01-29T04:54:29.405Z,0.30
2019-01-29T04:55:29.394Z,0.41
2019-01-29T04:56:29.383Z,0.41
2019-01-29T04:57:29.375Z,0.38
2019-01-29T04:58:29.361Z,0.39
2019-01-29T04:59:29.355Z,0.42
2019-01-29T05:00:29.354Z,0.43
2019-01-29T05:01:29.337Z,0.41
2019-01-29T05:02:29.325Z,0.45
2019-01-29T05:03:29.310Z,0.46
2019-01-29T05:04:29.305Z,0.43
2019-01-29T05:05:29.309Z,0.46
2019-01-29T05:06:29.277Z,0.45
2019-01-29T05:07:29.283Z,0.48
2019-01-29T05:08:29.259Z,0.46
2019-01-29T05:09:29.255Z,0.49
2019-01-29T05:10:29.238Z,0.52
2019-01-29T05:11:29.294Z,0.43
2019-01-29T05:12:29.217Z,0.48
2019-01-29T05:13:29.226Z,0.60
2019-01-29T05:14:29.197Z,0.52
2019-01-29T05:15:29.211Z,0.53
2019-01-29T05:16:29.174Z,0.61
2019-01-29T05:17:40.538Z,0.62
2019-01-29T05:18:40.473Z,0.57
2019-01-29T05:20:33.319Z,0.61
2019-01-29T05:21:33.300Z,0.62
2019-01-29T05:23:26.737Z,0.60
2019-01-29T05:24:26.644Z,0.60
2019-01-29T05:26:19.477Z,0.62
2019-01-29T05:27:19.533Z,0.67
2019-01-29T05:29:13.090Z,0.62
2019-01-29T05:30:12.901Z,0.72
2019-01-29T05:32:05.888Z,0.64
2019-01-29T05:33:06.358Z,0.71
2019-01-29T05:34:05.713Z,0.68
2019-01-29T05:35:08.244Z,0.67
2019-01-29T05:36:05.627Z,0.67
2019-01-29T05:37:05.627Z,0.70
2019-01-29T05:38:05.623Z,0.65
2019-01-29T05:39:05.587Z,0.75
2019-01-29T05:40:05.579Z,0.64
2019-01-29T05:41:05.587Z,0.72
2019-01-29T05:42:05.577Z,0.75
2019-01-29T05:43:05.547Z,0.72
2019-01-29T05:44:05.544Z,0.80
2019-01-29T05:45:05.527Z,0.72
2019-01-29T05:46:05.519Z,0.71
2019-01-29T05:47:05.505Z,0.75
2019-01-29T05:48:06.536Z,0.71
2019-01-29T05:49:05.486Z,0.82
2019-01-29T06:49:52.011Z,0.89
2019-01-29T06:50:51.827Z,0.85
2019-01-29T06:52:45.279Z,0.86
2019-01-29T06:53:45.156Z,0.89
2019-01-29T06:55:38.602Z,0.92
2019-01-29T06:56:38.513Z,0.90
2019-01-29T06:58:31.407Z,0.86
2019-01-29T06:59:31.337Z,0.89
2019-01-29T07:00:31.285Z,0.82
2019-01-29T07:01:31.299Z,0.86
2019-01-29T07:02:31.243Z,0.75
2019-01-29T07:03:31.228Z,0.80
2019-01-29T07:04:31.217Z,0.83
2019-01-29T07:05:31.207Z,0.83
2019-01-29T07:06:31.192Z,0.86
2019-01-29T07:07:31.183Z,0.82
2019-01-29T07:08:31.175Z,0.85
2019-01-29T07:09:31.159Z,0.85
2019-01-29T07:10:31.181Z,0.80
2019-01-29T07:11:31.139Z,0.82
2019-01-29T07:12:31.128Z,0.75
2019-01-29T07:13:31.136Z,0.82
2019-01-29T07:14:31.115Z,0.82
2019-01-29T07:15:31.111Z,0.75
2019-01-29T07:16:31.088Z,0.78
2019-01-29T07:17:31.074Z,0.71
2019-01-29T07:18:31.076Z,0.82
2019-01-29T07:19:31.058Z,0.76
2019-01-29T07:20:31.046Z,0.85
2019-01-29T07:21:31.046Z,0.80
2019-01-29T07:22:31.027Z,0.75
2019-01-29T07:23:31.023Z,0.83
2019-01-29T07:24:31.012Z,0.80
2019-01-29T07:25:30.995Z,0.71
2019-01-29T07:26:30.981Z,0.72
2019-01-29T07:27:30.971Z,0.72
2019-01-29T07:28:30.971Z,0.75
2019-01-29T07:29:30.965Z,0.79
2019-01-29T07:30:30.947Z,0.82
2019-01-29T07:31:30.933Z,0.82
2019-01-29T07:32:30.925Z,0.83
2019-01-29T07:33:30.912Z,0.79
2019-01-29T07:34:30.916Z,0.80
2019-01-29T07:35:30.900Z,0.82
2019-01-29T07:36:30.885Z,0.82
2019-01-29T07:37:30.889Z,0.80
2019-01-29T07:38:30.896Z,0.89
2019-01-29T07:39:30.859Z,0.83
2019-01-29T07:40:30.843Z,0.85
2019-01-29T07:41:30.837Z,0.85
2019-01-29T07:42:30.825Z,0.86
2019-01-29T07:43:30.846Z,0.86
2019-01-29T07:44:30.807Z,0.86
2019-01-29T07:45:30.821Z,0.88
2019-01-29T07:46:30.790Z,0.86
2019-01-29T07:47:30.774Z,0.89
2019-01-29T07:48:30.763Z,0.88
2019-01-29T07:49:30.754Z,0.92
2019-01-29T07:50:30.748Z,0.90
2019-01-29T07:51:30.735Z,0.90
2019-01-29T07:52:30.725Z,0.97
2019-01-29T07:53:30.719Z,0.88
2019-01-29T07:54:33.365Z,0.89
2019-01-29T07:55:30.697Z,0.88
2019-01-29T07:56:30.745Z,0.92
2019-01-29T07:57:30.675Z,0.92
2019-01-29T07:58:30.669Z,0.89
2019-01-29T07:59:33.231Z,0.94
2019-01-29T08:00:30.652Z,0.94
2019-01-29T08:01:30.666Z,1.00
2019-01-29T08:02:30.626Z,1.00
2019-01-29T08:03:30.618Z,1.07
2019-01-29T08:04:30.614Z,1.06
2019-01-29T08:05:30.632Z,1.15
2019-01-29T08:06:30.589Z,1.10
2019-01-29T08:07:30.583Z,1.16
2019-01-29T08:08:30.569Z,1.19
2019-01-29T08:09:30.562Z,1.14
2019-01-29T08:10:30.555Z,1.10
2019-01-29T08:11:30.541Z,1.21
2019-01-29T08:12:30.535Z,1.22
2019-01-29T08:13:30.524Z,1.24
2019-01-29T08:14:30.533Z,1.18
2019-01-29T08:15:30.510Z,1.21
2019-01-29T08:16:30.538Z,1.28
2019-01-29T08:17:30.490Z,1.24
2019-01-29T08:18:30.486Z,1.22
2019-01-29T08:19:30.467Z,1.24
2019-01-29T08:20:30.469Z,1.19
2019-01-29T08:21:30.450Z,1.24
2019-01-29T08:22:30.438Z,1.21
2019-01-29T08:23:30.437Z,1.22
2019-01-29T08:24:30.419Z,1.24
2019-01-29T08:25:30.410Z,1.28
2019-01-29T08:26:30.401Z,1.21
2019-01-29T08:27:30.394Z,1.21
2019-01-29T08:28:30.382Z,1.21
2019-01-29T08:29:30.727Z,1.21
2019-01-29T08:30:30.364Z,1.10
2019-01-29T08:31:30.361Z,1.18
2019-01-29T08:32:30.349Z,1.07
2019-01-29T08:33:30.345Z,1.22
2019-01-29T08:34:30.329Z,1.21
2019-01-29T08:35:30.321Z,1.29
2019-01-29T08:36:30.308Z,1.19
2019-01-29T08:37:30.331Z,1.29
2019-01-29T08:38:30.290Z,1.26
2019-01-29T08:39:30.307Z,1.26
2019-01-29T08:40:30.273Z,1.26
2019-01-29T08:41:30.263Z,1.42
2019-01-29T08:42:30.251Z,1.46
2019-01-29T08:43:30.246Z,1.43
2019-01-29T08:44:30.242Z,1.47
2019-01-29T08:45:30.226Z,1.43
2019-01-29T08:46:30.219Z,1.44
2019-01-29T08:47:30.207Z,1.50
2019-01-29T08:48:30.199Z,1.42
2019-01-29T08:49:30.191Z,1.50
2019-01-29T08:50:30.201Z,1.55
2019-01-29T08:51:30.174Z,1.52
2019-01-29T08:52:30.169Z,1.58
2019-01-29T08:53:30.165Z,1.55
2019-01-29T08:54:30.146Z,1.54
2019-01-29T08:55:30.138Z,1.65
2019-01-29T08:56:30.131Z,1.73
2019-01-29T08:57:30.120Z,1.64
2019-01-29T08:58:30.111Z,1.76
2019-01-29T08:59:30.112Z,1.73
2019-01-29T09:00:30.092Z,1.80
2019-01-29T09:01:30.098Z,1.90
2019-01-29T09:02:30.080Z,1.94
2019-01-29T09:03:30.067Z,2.02
2019-01-29T09:04:30.073Z,2.08
2019-01-29T09:05:30.081Z,2.08
2019-01-29T09:06:30.066Z,2.04
2019-01-29T09:07:30.034Z,2.33
2019-01-29T09:08:30.051Z,2.49
2019-01-29T09:09:30.019Z,2.35
2019-01-29T09:10:30.009Z,2.26
2019-01-29T09:11:30.001Z,2.27
2019-01-29T09:12:29.994Z,2.26
2019-01-29T09:13:30.002Z,2.31
2019-01-29T09:14:29.978Z,2.35
2019-01-29T09:15:29.999Z,2.33
2019-01-29T09:16:29.968Z,2.33
2019-01-29T09:17:29.957Z,2.22
2019-01-29T09:18:29.953Z,2.13
2019-01-29T09:19:29.938Z,2.40
2019-01-29T09:20:29.934Z,2.20
2019-01-29T09:21:29.936Z,2.20
2019-01-29T09:22:29.918Z,2.15
2019-01-29T09:23:29.910Z,2.10
2019-01-29T09:24:29.899Z,2.06
2019-01-29T09:25:29.895Z,2.10
2019-01-29T09:26:29.917Z,2.08
2019-01-29T09:27:29.887Z,2.12
2019-01-29T09:28:29.870Z,2.04
2019-01-29T09:29:29.890Z,2.02
2019-01-29T09:30:29.860Z,2.09
2019-01-29T09:31:29.850Z,2.06
2019-01-29T09:32:29.839Z,2.08
2019-01-29T09:33:29.835Z,2.02
2019-01-29T09:34:29.823Z,2.15
2019-01-29T09:35:29.816Z,2.04
2019-01-29T09:36:29.810Z,2.12
2019-01-29T09:37:29.804Z,2.06
2019-01-29T09:38:29.794Z,2.01
2019-01-29T09:39:29.921Z,1.99
2019-01-29T09:40:29.795Z,2.08
2019-01-29T09:41:29.771Z,2.06
2019-01-29T09:42:29.761Z,1.91
2019-01-29T09:43:29.757Z,2.04
2019-01-29T09:44:29.743Z,2.06
2019-01-29T09:45:29.738Z,2.06
2019-01-29T09:46:29.732Z,2.06
2019-01-29T09:47:29.720Z,2.08
2019-01-29T09:48:29.714Z,2.08
2019-01-29T09:49:29.717Z,2.04
2019-01-29T09:50:29.696Z,2.01
2019-01-29T09:51:29.690Z,2.02
2019-01-29T09:52:29.688Z,2.06
2019-01-29T09:53:29.675Z,1.99
2019-01-29T09:54:29.666Z,2.08
2019-01-29T09:55:30.123Z,2.04
2019-01-29T09:56:29.673Z,2.13
2019-01-29T09:57:29.670Z,2.08
2019-01-29T09:58:29.639Z,2.26
2019-01-29T09:59:29.656Z,2.20
2019-01-29T10:00:29.617Z,2.23
2019-01-29T10:01:29.611Z,2.22
2019-01-29T10:02:29.602Z,2.23
2019-01-29T10:03:29.594Z,2.41
2019-01-29T10:04:29.587Z,2.51
2019-01-29T10:05:29.585Z,2.41
2019-01-29T10:06:29.574Z,2.34
2019-01-29T10:07:29.563Z,2.35
2019-01-29T10:08:29.558Z,2.27
2019-01-29T10:09:29.548Z,2.13
2019-01-29T10:10:29.537Z,2.17
2019-01-29T10:11:29.534Z,2.13
2019-01-29T10:12:29.547Z,2.13
2019-01-29T10:13:29.528Z,2.16
2019-01-29T10:14:29.532Z,2.12
2019-01-29T10:15:29.501Z,2.16
2019-01-29T10:16:29.531Z,2.19
2019-01-29T10:17:29.488Z,2.13
2019-01-29T10:18:29.482Z,2.09
2019-01-29T10:19:29.473Z,2.06
2019-01-29T10:20:29.467Z,2.04
2019-01-29T10:21:29.479Z,2.02
2019-01-29T10:22:29.444Z,2.04
2019-01-29T10:23:29.437Z,2.04
2019-01-29T10:24:29.428Z,2.02
2019-01-29T10:25:37.035Z,2.09
2019-01-29T10:26:29.413Z,2.02
2019-01-29T10:27:29.409Z,2.09
2019-01-29T10:28:29.424Z,2.02
2019-01-29T10:29:29.390Z,2.15
2019-01-29T10:30:29.380Z,2.13
2019-01-29T10:31:29.389Z,2.20
2019-01-29T10:32:29.367Z,2.16
2019-01-29T10:33:29.357Z,2.17
2019-01-29T10:34:29.350Z,2.12
2019-01-29T10:35:29.347Z,2.04
2019-01-29T10:36:29.333Z,2.01
2019-01-29T10:37:29.328Z,1.99
2019-01-29T10:38:29.323Z,1.97
2019-01-29T10:39:29.337Z,2.04
2019-01-29T10:40:29.300Z,2.04
2019-01-29T10:41:29.300Z,2.08
2019-01-29T10:42:29.304Z,2.09
2019-01-29T10:43:29.277Z,2.08
2019-01-29T10:44:29.271Z,2.09
2019-01-29T10:45:29.312Z,2.04
2019-01-29T10:46:29.259Z,2.06
2019-01-29T10:47:29.247Z,2.04
2019-01-29T10:48:29.235Z,1.98
2019-01-29T10:49:29.232Z,1.98
2019-01-29T10:50:29.222Z,2.10
2019-01-29T10:51:29.212Z,2.08
2019-01-29T10:52:29.207Z,2.02
2019-01-29T10:53:29.198Z,2.02
2019-01-29T10:54:29.189Z,2.06
2019-01-29T10:55:29.178Z,2.09
2019-01-29T10:56:29.173Z,2.06
2019-01-29T10:57:29.164Z,2.02
2019-01-29T10:58:29.153Z,2.08
2019-01-29T10:59:29.146Z,1.98
2019-01-29T11:00:29.138Z,1.99
2019-01-29T11:01:29.136Z,2.04
2019-01-29T11:02:29.123Z,2.08
2019-01-29T11:03:29.115Z,2.06
2019-01-29T11:04:29.114Z,1.99
2019-01-29T11:05:29.117Z,2.08
2019-01-29T11:06:29.090Z,1.94
2019-01-29T11:07:29.082Z,1.89
2019-01-29T11:08:29.073Z,1.87
2019-01-29T11:09:29.084Z,1.93
2019-01-29T11:10:29.089Z,1.87
2019-01-29T11:11:29.085Z,1.89
2019-01-29T11:12:29.045Z,1.89
2019-01-29T11:13:29.034Z,1.85
2019-01-29T11:14:29.041Z,1.82
2019-01-29T11:15:29.017Z,1.85
2019-01-29T11:16:29.009Z,1.82
2019-01-29T11:17:29.069Z,1.91
2019-01-29T11:18:29.001Z,1.78
2019-01-29T11:19:28.988Z,1.72
2019-01-29T11:20:28.971Z,1.76
2019-01-29T11:21:28.966Z,1.64
2019-01-29T11:22:28.956Z,1.68
2019-01-29T11:23:28.947Z,1.72
2019-01-29T11:24:28.940Z,1.68
2019-01-29T11:25:28.947Z,1.76
2019-01-29T11:26:28.921Z,1.64
2019-01-29T11:27:30.968Z,1.64
2019-01-29T11:28:28.946Z,1.62
2019-01-29T11:29:28.899Z,1.65
2019-01-29T11:30:28.888Z,1.72
2019-01-29T11:31:29.607Z,1.72
2019-01-29T11:32:28.871Z,1.64
2019-01-29T11:33:28.868Z,1.65
2019-01-29T11:34:28.856Z,1.64
2019-01-29T11:35:28.855Z,1.76
2019-01-29T11:36:28.847Z,1.80
2019-01-29T11:37:28.830Z,1.78
2019-01-29T11:38:28.842Z,1.73
2019-01-29T11:39:28.810Z,1.80
2019-01-29T11:40:28.805Z,1.76
2019-01-29T11:41:28.810Z,1.76
2019-01-29T11:42:28.784Z,1.64
2019-01-29T11:43:28.778Z,1.68
2019-01-29T11:44:28.768Z,1.62
2019-01-29T11:45:28.760Z,1.68
2019-01-29T11:46:28.751Z,1.69
2019-01-29T11:47:28.768Z,1.64
2019-01-29T11:48:28.736Z,1.76
2019-01-29T11:49:28.730Z,1.83
2019-01-29T11:50:28.719Z,1.78
2019-01-29T11:51:28.713Z,1.89
2019-01-29T11:52:28.734Z,1.91
2019-01-29T11:53:28.697Z,2.02
2019-01-29T11:54:28.687Z,2.04
2019-01-29T11:55:28.680Z,2.04
2019-01-29T11:56:28.698Z,2.04
2019-01-29T11:57:28.664Z,2.06
2019-01-29T11:58:28.655Z,2.06
2019-01-29T11:59:28.649Z,2.12
2019-01-29T12:00:28.640Z,2.23
2019-01-29T12:01:28.633Z,2.20
2019-01-29T12:02:28.748Z,2.30
2019-01-29T12:03:28.642Z,2.34
2019-01-29T12:04:28.608Z,2.23
2019-01-29T12:05:28.598Z,2.34
2019-01-29T12:06:28.595Z,2.31
2019-01-29T12:07:28.586Z,2.33
2019-01-29T12:08:28.579Z,2.26
2019-01-29T12:09:28.573Z,2.20
2019-01-29T12:10:28.569Z,2.28
2019-01-29T12:11:28.555Z,2.23
2019-01-29T12:12:28.581Z,2.22
2019-01-29T12:13:28.537Z,2.33
2019-01-29T12:14:28.533Z,2.33
2019-01-29T12:15:28.523Z,2.34
2019-01-29T12:16:28.517Z,2.44
2019-01-29T12:17:28.526Z,2.44
2019-01-29T12:18:28.530Z,2.51
2019-01-29T12:19:28.495Z,2.46
2019-01-29T12:20:28.491Z,2.44
2019-01-29T12:21:28.482Z,2.34
2019-01-29T12:22:28.474Z,2.33
2019-01-29T12:23:28.465Z,2.35
2019-01-29T12:24:28.458Z,2.38
2019-01-29T12:25:28.450Z,2.41
2019-01-29T12:26:28.442Z,2.44
2019-01-29T12:27:28.479Z,2.38
2019-01-29T12:28:28.428Z,2.45
2019-01-29T12:29:28.448Z,2.33
2019-01-29T12:30:28.449Z,2.16
2019-01-29T12:31:28.407Z,2.16
2019-01-29T12:32:28.423Z,2.19
2019-01-29T12:33:28.393Z,2.19
2019-01-29T12:34:28.382Z,2.15
2019-01-29T12:35:28.377Z,1.99
2019-01-29T12:36:28.369Z,1.91
2019-01-29T12:37:28.371Z,2.10
2019-01-29T12:38:28.384Z,2.08
2019-01-29T12:39:28.351Z,2.01
2019-01-29T12:40:28.335Z,2.09
2019-01-29T12:41:28.331Z,1.99
2019-01-29T12:42:28.326Z,2.08
2019-01-29T12:43:28.315Z,2.06
2019-01-29T12:44:28.312Z,2.12
2019-01-29T12:45:28.318Z,2.02
2019-01-29T12:46:28.292Z,2.02
2019-01-29T12:47:28.292Z,2.13
2019-01-29T12:48:28.305Z,2.10
2019-01-29T12:49:28.269Z,2.13
2019-01-29T12:50:28.267Z,2.10
2019-01-29T12:51:28.258Z,2.12
2019-01-29T12:52:28.246Z,2.22
2019-01-29T12:53:28.240Z,2.16
2019-01-29T12:54:28.257Z,2.15
2019-01-29T12:55:28.230Z,2.13
2019-01-29T12:56:28.242Z,2.20
2019-01-29T12:57:28.207Z,2.13
2019-01-29T12:58:28.199Z,2.26
2019-01-29T12:59:28.194Z,2.30
2019-01-29T13:00:28.208Z,2.35
2019-01-29T13:01:28.180Z,2.46
2019-01-29T13:02:28.287Z,2.48
2019-01-29T13:03:28.160Z,2.58
2019-01-29T13:04:28.161Z,2.67
2019-01-29T13:05:28.150Z,2.69
2019-01-29T13:06:28.138Z,2.70
2019-01-29T13:07:28.133Z,2.70
2019-01-29T13:08:28.126Z,2.69
2019-01-29T13:09:28.116Z,2.59
2019-01-29T13:10:28.109Z,2.51
2019-01-29T13:11:28.117Z,2.55
2019-01-29T13:12:28.094Z,2.44
2019-01-29T13:13:28.090Z,2.41
2019-01-29T13:14:28.077Z,2.37
2019-01-29T13:15:28.069Z,2.40
2019-01-29T13:16:28.062Z,2.27
2019-01-29T13:17:28.103Z,2.20
2019-01-29T13:18:28.047Z,2.26
2019-01-29T13:19:28.039Z,2.15
2019-01-29T13:20:28.042Z,2.17
2019-01-29T13:21:28.060Z,2.10
2019-01-29T13:22:28.061Z,2.06
2019-01-29T13:23:28.010Z,2.04
2019-01-29T13:24:28.003Z,2.12
2019-01-29T13:25:28.018Z,2.09
2019-01-29T13:26:30.160Z,2.06
2019-01-29T13:27:27.978Z,2.10
2019-01-29T13:28:27.971Z,2.06
2019-01-29T13:29:27.964Z,1.99
2019-01-29T13:30:27.953Z,2.04
2019-01-29T13:31:27.947Z,2.09
2019-01-29T13:32:27.938Z,2.15
2019-01-29T13:33:27.932Z,2.04
2019-01-29T13:34:28.966Z,2.15
2019-01-29T13:35:35.233Z,2.06
2019-01-29T13:37:21.375Z,2.12
2019-01-29T13:38:21.424Z,2.16
2019-01-29T13:40:14.775Z,2.13
2019-01-29T13:41:14.758Z,2.13
2019-01-29T13:43:08.127Z,2.22
2019-01-29T13:44:08.127Z,2.31
2019-01-29T13:46:01.557Z,2.34
2019-01-29T13:47:01.532Z,2.31
2019-01-29T13:48:01.496Z,2.28
2019-01-29T13:49:01.510Z,2.22
2019-01-29T13:50:01.640Z,2.20
2019-01-29T13:51:01.477Z,2.17
2019-01-29T13:52:01.454Z,2.08
2019-01-29T13:53:01.449Z,2.19
2019-01-29T13:54:01.442Z,2.02
2019-01-29T13:55:01.432Z,2.01
2019-01-29T13:56:01.426Z,2.15
2019-01-29T13:57:01.447Z,2.08
2019-01-29T13:58:01.409Z,2.08
2019-01-29T13:59:01.398Z,2.12
2019-01-29T14:00:01.392Z,2.02
2019-01-29T14:01:01.387Z,2.10
2019-01-29T14:02:01.379Z,2.01
2019-01-29T14:03:01.369Z,2.04
2019-01-29T14:04:06.400Z,2.02
2019-01-29T14:05:01.355Z,2.02
2019-01-29T14:06:01.346Z,2.06
2019-01-29T14:07:01.340Z,1.98
2019-01-29T14:08:01.334Z,2.04
2019-01-29T14:09:01.319Z,2.02
2019-01-29T14:10:01.313Z,1.94
2019-01-29T14:11:01.307Z,2.01
2019-01-29T14:12:01.297Z,2.08
2019-01-29T14:13:01.292Z,1.99
2019-01-29T14:14:01.278Z,2.06
2019-01-29T14:15:01.276Z,2.02
2019-01-29T14:16:01.287Z,2.04
2019-01-29T14:17:01.258Z,2.04
2019-01-29T14:18:01.246Z,2.08
2019-01-29T14:19:01.260Z,2.09
2019-01-29T14:20:01.244Z,1.98
2019-01-29T14:21:01.224Z,1.97
2019-01-29T14:22:01.213Z,2.01
2019-01-29T14:23:01.207Z,2.08
2019-01-29T14:24:08.655Z,2.01
2019-01-29T14:25:54.121Z,2.10
2019-01-29T14:26:54.147Z,2.01
2019-01-29T14:28:46.953Z,2.06
2019-01-29T14:29:46.924Z,2.06
2019-01-29T14:31:40.917Z,2.06